Time;durP1;ratioP1;P1;durP2;ratioP2;P2;SDS_P1;SDS_P2;PMS_P1;PMS_P2;Temp;Humidity;BMP_temperature;BMP_pressure;BME280_temperature;BME280_humidity;BME280_pressure;Samples;Min_cycle;Max_cycle;Signal;HPM_P1;HPM_P2
2022/03/31 00:03:15;;;;;;;8.37;7.70;;;;;;;9.78;54.71;96232.00;8384403;28;20239;-70
2022/03/31 00:07:20;;;;;;;8.20;7.60;;;;;;;9.97;54.38;96226.41;8384853;28;20239;-70
2022/03/31 00:11:25;;;;;;;8.93;8.20;;;;;;;10.07;53.75;96216.22;8384870;28;20405;-70
2022/03/31 00:15:30;;;;;;;8.93;8.20;;;;;;;10.03;54.36;96214.81;8384848;28;20239;-69
2022/03/31 00:19:33;;;;;;;7.90;7.30;;;;;;;10.15;54.13;96216.53;8385014;28;20239;-70
2022/03/31 00:33:33;;;;;;;9.90;9.10;;;;;;;9.83;54.47;96204.09;8384071;28;20234;-70
2022/03/31 00:37:39;;;;;;;9.20;8.47;;;;;;;9.96;54.50;96209.25;8384303;28;20231;-70
2022/03/31 00:41:42;;;;;;;9.50;8.70;;;;;;;9.86;54.90;96201.31;8383921;28;20239;-69
2022/03/31 00:45:50;;;;;;;9.57;8.77;;;;;;;9.90;54.42;96200.16;8383983;28;20228;-70
2022/03/31 00:49:55;;;;;;;9.87;9.07;;;;;;;9.96;54.67;96189.38;8384016;28;20390;-70
2022/03/31 00:53:59;;;;;;;9.60;8.70;;;;;;;10.08;54.54;96195.44;8382584;28;20232;-70
2022/03/31 00:58:02;;;;;;;10.03;9.23;;;;;;;10.02;54.28;96180.38;8383716;28;20235;-70
2022/03/31 01:02:05;;;;;;;10.40;9.13;;;;;;;10.02;54.44;96185.53;8383728;28;20453;-69
2022/03/31 01:06:10;;;;;;;10.73;9.83;;;;;;;10.04;53.87;96183.66;8383332;28;20223;-69
2022/03/31 01:10:14;;;;;;;10.27;9.37;;;;;;;10.10;53.89;96172.88;8382869;28;20394;-69
2022/03/31 01:14:17;;;;;;;10.20;9.20;;;;;;;9.95;55.07;96174.78;8382883;28;20234;-70
2022/03/31 01:18:21;;;;;;;10.20;9.30;;;;;;;10.03;54.88;96176.81;8382755;28;20317;-70
2022/03/31 01:22:26;;;;;;;10.37;9.43;;;;;;;10.05;54.97;96171.56;8382879;28;20239;-70
2022/03/31 01:26:31;;;;;;;10.60;9.70;;;;;;;10.05;54.42;96168.97;8382744;28;20239;-70
2022/03/31 01:30:37;;;;;;;10.97;10.00;;;;;;;10.04;54.50;96160.38;8382555;28;20211;-70
2022/03/31 01:34:40;;;;;;;11.47;10.47;;;;;;;10.11;54.16;96158.19;8382458;28;20553;-70
2022/03/31 01:38:43;;;;;;;11.50;10.53;;;;;;;10.01;54.24;96160.59;8382049;28;20227;-70
2022/03/31 01:42:48;;;;;;;12.40;11.30;;;;;;;9.96;54.63;96152.34;8382751;28;20236;-69
2022/03/31 01:46:51;;;;;;;12.13;11.13;;;;;;;9.97;54.77;96146.22;8384196;28;20222;-70
2022/03/31 01:50:54;;;;;;;12.30;11.23;;;;;;;10.08;55.02;96150.66;8383880;28;20199;-70
2022/03/31 01:54:57;;;;;;;12.50;11.40;;;;;;;10.12;54.35;96145.16;8383878;28;20204;-70
2022/03/31 01:59:02;;;;;;;12.77;11.57;;;;;;;10.14;54.33;96145.03;8383806;28;20199;-70
2022/03/31 02:03:05;;;;;;;13.10;11.90;;;;;;;10.10;54.56;96143.59;8383295;28;20214;-70
2022/03/31 02:07:08;;;;;;;13.23;12.03;;;;;;;10.16;54.32;96136.22;8382505;28;20235;-70
2022/03/31 02:11:12;;;;;;;13.93;12.63;;;;;;;10.08;54.56;96135.94;8372903;28;20419;-70
2022/03/31 02:15:17;;;;;;;13.73;12.43;;;;;;;10.08;54.83;96129.97;8381344;28;20424;-70
2022/03/31 02:19:20;;;;;;;15.23;13.53;;;;;;;9.94;55.07;96116.25;8381345;28;20238;-70
2022/03/31 02:23:23;;;;;;;14.30;12.90;;;;;;;10.05;54.88;96119.81;8381189;28;20246;-70
2022/03/31 02:27:26;;;;;;;14.73;13.33;;;;;;;9.93;55.27;96117.19;8381105;28;20258;-69
2022/03/31 02:31:31;;;;;;;15.57;14.10;;;;;;;9.90;55.55;96109.66;8380912;28;20306;-70
2022/03/31 02:35:34;;;;;;;15.63;14.23;;;;;;;9.79;56.55;96107.81;8381019;28;20498;-70
2022/03/31 02:39:37;;;;;;;16.17;14.67;;;;;;;9.84;56.29;96104.91;8380338;28;20242;-70
2022/03/31 02:43:39;;;;;;;15.80;14.40;;;;;;;9.98;56.56;96112.50;8380468;28;20238;-70
2022/03/31 02:47:45;;;;;;;16.43;14.97;;;;;;;9.89;56.85;96100.25;8380071;28;20228;-70
2022/03/31 02:51:51;;;;;;;16.67;14.97;;;;;;;9.91;56.83;96103.53;8380313;28;20228;-70
2022/03/31 02:55:54;;;;;;;16.87;15.27;;;;;;;9.89;57.39;96099.41;8380052;28;20227;-70
2022/03/31 02:59:57;;;;;;;16.40;14.90;;;;;;;9.89;57.25;96100.25;8380190;28;20231;-70
2022/03/31 03:04:01;;;;;;;18.13;16.43;;;;;;;9.83;57.12;96092.09;8379815;28;20325;-69
2022/03/31 03:08:04;;;;;;;19.10;17.40;;;;;;;9.70;57.58;96086.97;8379940;28;20565;-69
2022/03/31 03:12:10;;;;;;;18.17;16.50;;;;;;;9.85;57.88;96082.47;8379806;28;20227;-69
2022/03/31 03:16:15;;;;;;;18.13;16.43;;;;;;;9.89;57.71;96074.38;8383816;28;20251;-70
2022/03/31 03:20:19;;;;;;;18.20;16.50;;;;;;;9.49;58.58;96068.63;8386451;28;20238;-70
2022/03/31 03:24:23;;;;;;;19.57;17.77;;;;;;;9.61;57.98;96061.78;8386414;28;20231;-70
2022/03/31 03:28:26;;;;;;;19.83;18.03;;;;;;;9.58;58.32;96053.31;8386328;28;20238;-70
2022/03/31 03:32:29;;;;;;;19.20;17.47;;;;;;;9.51;58.70;96049.50;8386173;28;20428;-69
2022/03/31 03:36:33;;;;;;;20.53;18.63;;;;;;;9.51;58.99;96048.69;8386085;28;20227;-70
2022/03/31 03:40:37;;;;;;;20.30;18.40;;;;;;;9.47;58.95;96045.50;8385867;28;20381;-70
2022/03/31 03:44:40;;;;;;;19.87;18.07;;;;;;;9.26;59.41;96039.25;8385819;28;20238;-69
2022/03/31 03:48:43;;;;;;;21.17;19.03;;;;;;;9.51;59.07;96041.75;8385828;28;20231;-69
2022/03/31 03:52:47;;;;;;;21.13;19.23;;;;;;;9.53;58.94;96037.28;8385602;28;20231;-70
2022/03/31 03:56:50;;;;;;;19.60;17.83;;;;;;;9.65;58.48;96040.75;8386105;28;20231;-72
2022/03/31 04:00:54;;;;;;;22.10;20.03;;;;;;;9.50;58.94;96039.25;8385811;28;20254;-70
2022/03/31 04:04:57;;;;;;;22.77;20.67;;;;;;;9.46;58.60;96043.00;8385192;28;20558;-71
2022/03/31 04:09:04;;;;;;;21.47;19.57;;;;;;;9.50;58.94;96037.53;8385393;28;20231;-70
2022/03/31 04:13:07;;;;;;;22.17;20.23;;;;;;;9.38;59.25;96036.63;8385001;28;20552;-70
2022/03/31 04:17:10;;;;;;;22.90;20.67;;;;;;;9.23;59.64;96026.53;8384438;28;20230;-70
2022/03/31 04:21:14;;;;;;;21.77;19.77;;;;;;;9.34;59.48;96024.84;8384648;28;20235;-70
2022/03/31 04:25:19;;;;;;;21.53;19.63;;;;;;;9.51;58.77;96025.44;8384228;28;20235;-70
2022/03/31 04:29:24;;;;;;;22.27;20.17;;;;;;;9.58;59.09;96024.06;8384453;28;20239;-70
2022/03/31 04:33:28;;;;;;;23.00;20.90;;;;;;;9.49;59.14;96027.28;8384038;28;20235;-69
2022/03/31 04:37:32;;;;;;;23.00;20.93;;;;;;;9.54;59.20;96028.63;8384048;28;20251;-70
2022/03/31 04:41:36;;;;;;;23.73;21.53;;;;;;;9.54;58.70;96017.47;8384120;28;20235;-70
2022/03/31 04:45:39;;;;;;;23.07;20.87;;;;;;;9.59;58.71;96021.38;8384119;28;20261;-69
2022/03/31 04:49:42;;;;;;;22.60;20.60;;;;;;;9.68;58.96;96022.47;8381903;28;20242;-70
2022/03/31 04:53:45;;;;;;;24.30;22.00;;;;;;;9.64;58.95;96015.88;8383502;28;20242;-70
2022/03/31 04:57:51;;;;;;;22.93;20.93;;;;;;;9.57;58.99;96020.63;8383633;28;20228;-71
2022/03/31 05:01:56;;;;;;;25.43;23.23;;;;;;;9.61;58.98;96025.59;8384295;28;20240;-70
2022/03/31 05:05:59;;;;;;;24.60;22.27;;;;;;;9.70;58.39;96019.78;8398109;28;20282;-70
2022/03/31 05:10:02;;;;;;;25.70;23.30;;;;;;;9.62;58.63;96022.09;8398829;28;20569;-69
2022/03/31 05:14:07;;;;;;;25.90;23.60;;;;;;;9.59;58.81;96030.88;8391429;28;20227;-69
2022/03/31 05:18:12;;;;;;;24.23;22.03;;;;;;;9.51;58.62;96028.81;8396428;28;20230;-70
2022/03/31 05:22:15;;;;;;;25.80;23.30;;;;;;;9.68;58.50;96035.38;8398605;28;20227;-69
2022/03/31 05:26:18;;;;;;;25.90;23.47;;;;;;;9.77;58.41;96031.31;8394585;28;20224;-69
2022/03/31 05:30:23;;;;;;;25.00;22.70;;;;;;;9.86;58.36;96027.25;8399787;28;20397;-70
2022/03/31 05:34:27;;;;;;;25.17;22.87;;;;;;;9.94;58.15;96030.13;8381221;28;20585;-69
2022/03/31 05:38:30;;;;;;;25.33;23.03;;;;;;;9.80;58.67;96031.09;8381542;28;20254;-69
2022/03/31 05:42:33;;;;;;;26.33;23.93;;;;;;;9.71;58.59;96027.41;8382018;28;20427;-69
2022/03/31 05:46:38;;;;;;;26.17;23.73;;;;;;;9.78;58.37;96018.28;8382056;28;20545;-70
2022/03/31 05:50:41;;;;;;;25.57;23.27;;;;;;;9.65;58.97;96021.84;8381825;28;20227;-70
2022/03/31 05:54:44;;;;;;;26.80;24.17;;;;;;;9.62;58.88;96028.06;8381539;28;20235;-70
2022/03/31 05:58:47;;;;;;;25.97;23.37;;;;;;;9.78;58.79;96017.44;8381704;28;20231;-69
2022/03/31 06:02:53;;;;;;;26.67;24.17;;;;;;;9.74;58.74;96021.19;8381398;28;20238;-70
2022/03/31 06:06:56;;;;;;;26.23;23.93;;;;;;;9.77;58.88;96026.16;8381162;28;20231;-70
2022/03/31 06:10:58;;;;;;;27.80;25.27;;;;;;;9.73;58.84;96032.50;8381292;28;20231;-69
2022/03/31 06:15:01;;;;;;;26.93;24.43;;;;;;;9.78;58.85;96032.97;8380890;28;20235;-70
2022/03/31 06:19:07;;;;;;;26.90;24.30;;;;;;;9.64;59.06;96023.63;8381022;28;20227;-70
2022/03/31 06:23:11;;;;;;;25.60;23.20;;;;;;;9.74;58.88;96016.03;8380472;28;20227;-70
2022/03/31 06:27:14;;;;;;;26.67;24.10;;;;;;;9.63;58.98;96019.38;8380764;28;20298;-70
2022/03/31 06:31:16;;;;;;;25.77;23.37;;;;;;;9.86;58.72;96022.91;8380651;28;20550;-70
2022/03/31 06:35:22;;;;;;;27.10;24.63;;;;;;;9.70;59.29;96014.59;8380820;28;20239;-71
2022/03/31 06:39:25;;;;;;;26.90;24.30;;;;;;;9.57;59.62;96023.22;8380321;28;20243;-70
2022/03/31 06:43:28;;;;;;;27.03;24.53;;;;;;;9.46;60.54;96018.00;8380388;28;20238;-70
2022/03/31 06:47:31;;;;;;;26.53;24.13;;;;;;;9.53;60.69;96011.47;8365160;28;20424;-70
2022/03/31 06:51:35;;;;;;;27.27;24.87;;;;;;;9.34;60.48;96011.94;8346525;28;20235;-70
2022/03/31 06:55:38;;;;;;;25.87;23.37;;;;;;;9.69;59.51;96012.94;8347392;28;20535;-70
2022/03/31 06:59:41;;;;;;;26.50;24.10;;;;;;;9.53;59.97;96021.78;8347290;28;20232;-70
2022/03/31 07:03:44;;;;;;;24.63;22.43;;;;;;;9.71;60.06;96018.81;8347229;28;20228;-70
2022/03/31 07:07:51;;;;;;;27.03;24.53;;;;;;;9.68;59.70;96021.66;8346998;28;20240;-70
2022/03/31 07:11:55;;;;;;;26.43;23.87;;;;;;;9.67;59.72;96017.41;8346814;28;20238;-70
2022/03/31 07:15:57;;;;;;;26.40;24.00;;;;;;;9.88;59.54;96021.03;8346900;28;20538;-70
2022/03/31 07:20:01;;;;;;;25.77;23.37;;;;;;;9.94;59.53;96019.78;8346998;28;20239;-70
2022/03/31 07:24:05;;;;;;;26.60;23.83;;;;;;;10.09;58.83;96018.66;8346498;28;20243;-69
2022/03/31 07:28:08;;;;;;;25.80;23.33;;;;;;;9.97;59.20;96011.78;8346453;28;20228;-70
2022/03/31 07:32:11;;;;;;;26.53;24.03;;;;;;;9.95;59.26;96017.03;8345957;28;20224;-71
2022/03/31 07:36:14;;;;;;;26.37;23.77;;;;;;;9.95;59.67;96021.41;8346444;28;20236;-70
2022/03/31 07:40:20;;;;;;;25.80;23.40;;;;;;;10.02;59.07;96017.44;8346260;28;20236;-70
2022/03/31 07:44:24;;;;;;;27.10;24.40;;;;;;;9.83;58.95;96023.13;8346374;28;20235;-69
2022/03/31 07:48:27;;;;;;;26.30;23.80;;;;;;;10.06;58.94;96018.03;8369269;28;20240;-70
2022/03/31 07:52:30;;;;;;;27.27;24.77;;;;;;;9.81;59.77;96019.00;8379208;28;20285;-69
2022/03/31 07:56:42;;;;;;;27.00;24.47;;;;;;;10.01;59.35;96012.38;8378998;28;20236;-70
2022/03/31 08:00:50;;;;;;;27.90;25.20;;;;;;;9.98;59.36;96018.59;8380731;28;20231;-70
2022/03/31 08:04:54;;;;;;;26.63;23.97;;;;;;;9.90;59.42;96014.00;8385404;28;20400;-70
2022/03/31 08:08:57;;;;;;;28.83;26.13;;;;;;;9.83;59.89;96014.56;8384921;28;20550;-69
2022/03/31 08:13:02;;;;;;;27.90;25.30;;;;;;;10.06;59.25;96002.53;8385084;28;20231;-69
2022/03/31 08:17:06;;;;;;;26.60;24.07;;;;;;;10.17;59.21;95997.38;8384952;28;20238;-70
2022/03/31 08:21:09;;;;;;;27.90;25.30;;;;;;;10.09;59.27;95997.97;8384395;28;20223;-70
2022/03/31 08:25:13;;;;;;;27.10;24.53;;;;;;;9.98;60.18;95997.91;8384662;28;20238;-69
2022/03/31 08:29:18;;;;;;;27.90;25.20;;;;;;;10.15;59.83;95996.69;8384634;28;20242;-70
2022/03/31 08:33:20;;;;;;;27.97;25.30;;;;;;;10.14;59.84;95990.66;8384710;28;20231;-69
2022/03/31 08:37:24;;;;;;;28.03;25.33;;;;;;;10.14;60.66;95989.84;8384350;28;20238;-70
2022/03/31 08:41:29;;;;;;;29.93;27.00;;;;;;;10.35;59.97;95996.03;8384194;28;20365;-69
2022/03/31 08:45:36;;;;;;;29.13;26.30;;;;;;;10.37;59.23;95996.75;8383991;28;20235;-69
2022/03/31 08:49:38;;;;;;;29.20;26.40;;;;;;;10.47;59.63;95996.06;8383842;28;20238;-70
2022/03/31 08:53:42;;;;;;;29.10;26.17;;;;;;;10.63;59.03;95991.38;8383424;28;20242;-70
2022/03/31 08:57:46;;;;;;;34.60;27.20;;;;;;;13.24;62.80;95990.16;8382855;28;20321;-62
2022/03/31 09:01:51;;;;;;;24.73;22.17;;;;;;;13.93;57.50;95990.28;8383309;28;20233;-63
2022/03/31 09:05:54;;;;;;;23.33;20.77;;;;;;;14.50;54.26;95982.56;8383276;28;20242;-65
2022/03/31 09:09:57;;;;;;;23.47;20.70;;;;;;;14.60;50.70;95988.59;8382943;28;20232;-63
2022/03/31 09:14:01;;;;;;;25.60;23.17;;;;;;;14.66;47.93;95980.22;8381988;28;20273;-64
2022/03/31 09:18:07;;;;;;;25.43;22.90;;;;;;;14.95;48.89;95979.31;8375626;28;20402;-65
2022/03/31 09:22:11;;;;;;;24.13;21.83;;;;;;;14.58;49.81;95988.75;8349245;28;20522;-62
2022/03/31 09:26:15;;;;;;;26.20;23.60;;;;;;;12.96;49.93;95981.31;8349582;28;20232;-67
2022/03/31 09:30:18;;;;;;;19.17;17.17;;;;;;;14.77;49.37;95990.47;8348877;28;20236;-64
2022/03/31 09:34:24;;;;;;;17.43;15.63;;;;;;;15.55;47.71;95987.47;8348963;28;20236;-67
2022/03/31 09:38:27;;;;;;;18.90;17.00;;;;;;;15.73;48.04;95976.25;8349187;28;20242;-65
2022/03/31 09:42:30;;;;;;;19.03;17.23;;;;;;;15.83;47.82;95977.84;8349031;28;20231;-64
2022/03/31 09:46:35;;;;;;;21.00;17.77;;;;;;;16.04;47.00;95974.09;8356283;28;20257;-64
2022/03/31 09:50:40;;;;;;;18.27;16.10;;;;;;;16.27;46.93;95963.19;8382023;28;20272;-65
2022/03/31 09:54:43;;;;;;;18.30;16.50;;;;;;;16.20;47.25;95963.81;8381645;28;20232;-65
2022/03/31 09:58:47;;;;;;;24.80;22.23;;;;;;;14.51;46.61;95968.56;8381777;28;20231;-69
2022/03/31 10:02:51;;;;;;;25.37;23.07;;;;;;;13.52;49.42;95963.56;8381785;28;20231;-65
2022/03/31 10:07:14;;;;;;;28.20;25.50;;;;;;;12.94;51.45;95959.84;8381036;28;20226;-67
2022/03/31 10:11:19;;;;;;;25.37;22.97;;;;;;;12.63;51.77;95959.88;8381451;28;20245;-66
2022/03/31 10:15:30;;;;;;;26.17;23.47;;;;;;;12.31;52.73;95955.59;8381369;28;20427;-67
2022/03/31 10:19:36;;;;;;;28.50;25.17;;;;;;;12.29;53.47;95954.91;8381150;28;20518;-66
2022/03/31 10:28:13;;;;;;;38.67;34.93;;;;;;;11.49;55.51;95948.41;8380426;28;20226;-66
2022/03/31 10:32:17;;;;;;;30.07;27.17;;;;;;;11.69;55.37;95945.97;8380441;28;20247;-66
2022/03/31 10:36:23;;;;;;;31.17;28.10;;;;;;;11.47;56.18;95945.13;8379994;28;20241;-66
2022/03/31 10:40:31;;;;;;;30.33;27.33;;;;;;;11.74;54.94;95934.28;8380184;28;20238;-67
2022/03/31 10:44:34;;;;;;;33.43;30.17;;;;;;;11.76;54.97;95931.56;8380335;28;20231;-66
2022/03/31 10:48:37;;;;;;;26.50;24.00;;;;;;;11.73;55.39;95937.03;8379951;28;20572;-67
2022/03/31 10:52:40;;;;;;;24.30;21.80;;;;;;;11.38;56.01;95925.13;8390302;28;20238;-67
2022/03/31 10:56:45;;;;;;;23.73;21.40;;;;;;;11.51;54.81;95922.38;8412943;28;20239;-67
2022/03/31 11:00:49;;;;;;;30.77;27.77;;;;;;;11.28;55.78;95917.25;8413159;28;20226;-65
2022/03/31 11:04:54;;;;;;;28.77;25.87;;;;;;;11.57;55.95;95906.31;8413144;28;20553;-68
2022/03/31 11:08:56;;;;;;;20.83;18.83;;;;;;;11.50;55.38;95910.38;8413100;28;20234;-67
2022/03/31 11:13:01;;;;;;;20.87;18.67;;;;;;;11.55;54.34;95910.81;8413115;28;20241;-67
2022/03/31 11:17:04;;;;;;;19.73;17.80;;;;;;;11.37;55.03;95915.72;8412896;28;20226;-67
2022/03/31 11:21:07;;;;;;;28.93;25.80;;;;;;;11.15;55.06;95914.00;8400087;28;20229;-67
2022/03/31 11:25:11;;;;;;;22.07;19.67;;;;;;;11.18;55.85;95903.41;8395571;28;20219;-66
2022/03/31 11:29:18;;;;;;;20.33;18.23;;;;;;;10.83;56.62;95912.16;8395534;28;20394;-66
2022/03/31 11:43:34;;;;;;;17.23;14.53;;;;;;;10.61;57.12;95913.03;8352706;28;20229;-66
2022/03/31 11:47:39;;;;;;;14.47;13.07;;;;;;;10.64;55.96;95904.19;8352917;28;20235;-67
2022/03/31 11:51:49;;;;;;;14.40;12.90;;;;;;;10.54;56.44;95911.84;8352752;28;20539;-67
2022/03/31 11:56:01;;;;;;;15.63;14.03;;;;;;;10.62;56.26;95909.47;8352688;28;20232;-66
2022/03/31 12:00:12;;;;;;;14.70;13.13;;;;;;;10.68;56.39;95906.44;8352312;28;20228;-66
2022/03/31 12:04:20;;;;;;;14.53;13.03;;;;;;;10.48;56.73;95891.63;8351891;28;20412;-67
2022/03/31 12:08:23;;;;;;;19.87;17.37;;;;;;;10.56;56.99;95895.25;8351970;28;20458;-64
2022/03/31 12:12:26;;;;;;;17.27;14.43;;;;;;;10.50;56.62;95890.53;8351730;28;20232;-67
2022/03/31 12:16:29;;;;;;;22.50;20.07;;;;;;;10.50;56.95;95890.53;8351737;28;20419;-68
2022/03/31 12:20:35;;;;;;;31.43;25.53;;;;;;;10.82;56.09;95886.41;8334419;28;20291;-67
2022/03/31 12:35:31;;;;;;;16.50;14.77;;;;;;;10.75;56.16;95884.28;8325157;28;20597;-67
2022/03/31 12:39:42;;;;;;;19.60;15.50;;;;;;;10.57;57.03;95880.56;8320047;28;20229;-67
2022/03/31 12:44:00;;;;;;;30.63;19.93;;;;;;;11.11;56.21;95881.50;8384275;28;20227;-67
2022/03/31 12:48:08;;;;;;;29.23;19.00;;;;;;;11.11;55.52;95877.16;8416897;28;20253;-67
2022/03/31 12:52:13;;;;;;;16.43;13.90;;;;;;;10.99;56.00;95875.53;8416588;28;20229;-67
2022/03/31 12:56:28;;;;;;;16.23;12.70;;;;;;;10.42;56.73;95879.16;8407249;28;20240;-67
2022/03/31 13:00:33;;;;;;;15.00;13.37;;;;;;;10.93;56.60;95871.69;8383595;28;20238;-67
2022/03/31 13:04:42;;;;;;;14.07;12.67;;;;;;;10.80;56.99;95867.59;8383599;28;20228;-67
2022/03/31 13:08:45;;;;;;;13.40;12.10;;;;;;;11.05;56.04;95862.09;8383386;28;20560;-68
2022/03/31 13:12:49;;;;;;;14.10;12.37;;;;;;;11.25;55.07;95857.09;8383173;28;20242;-67
2022/03/31 13:16:52;;;;;;;13.60;12.20;;;;;;;11.11;55.52;95856.41;8382830;28;20242;-67
2022/03/31 13:20:56;;;;;;;13.27;11.90;;;;;;;11.17;55.90;95862.06;8389759;28;20231;-68
2022/03/31 13:24:59;;;;;;;13.03;11.20;;;;;;;11.26;55.62;95864.75;8396937;28;20222;-67
2022/03/31 13:29:05;;;;;;;14.87;10.60;;;;;;;11.46;54.99;95864.88;8398776;28;20223;-67
2022/03/31 13:33:08;;;;;;;12.33;10.50;;;;;;;11.33;54.99;95852.94;8392639;28;20434;-67
2022/03/31 13:37:11;;;;;;;11.83;10.63;;;;;;;11.39;54.75;95856.81;8397895;28;20223;-67
2022/03/31 13:41:14;;;;;;;11.70;10.50;;;;;;;11.54;55.46;95857.31;8392615;28;20245;-68
2022/03/31 13:45:19;;;;;;;13.13;10.13;;;;;;;11.40;55.50;95858.44;8398030;28;20231;-68
2022/03/31 13:49:22;;;;;;;10.50;9.50;;;;;;;11.37;55.20;95848.34;8393113;28;20423;-69
2022/03/31 14:02:09;;;;;;;11.50;10.40;;;;;;;11.30;54.07;95835.03;8380807;28;20223;-68
2022/03/31 14:06:13;;;;;;;10.70;9.63;;;;;;;11.56;54.55;95829.50;8381407;28;20223;-67
2022/03/31 14:10:21;;;;;;;9.10;8.17;;;;;;;11.38;54.42;95829.22;8387531;28;20247;-68
2022/03/31 14:14:26;;;;;;;8.40;7.60;;;;;;;11.36;54.96;95825.94;8388951;28;20238;-67
2022/03/31 14:18:31;;;;;;;8.43;7.53;;;;;;;11.04;56.29;95829.38;8382193;28;20251;-68
2022/03/31 14:22:34;;;;;;;8.57;7.70;;;;;;;11.59;54.83;95823.25;8383997;28;20227;-68
2022/03/31 14:26:37;;;;;;;8.63;7.80;;;;;;;11.49;54.69;95826.59;8378514;28;20426;-67
2022/03/31 14:30:42;;;;;;;7.43;6.73;;;;;;;11.62;53.97;95823.00;8381185;28;20238;-67
2022/03/31 14:34:55;;;;;;;7.90;6.97;;;;;;;11.47;54.11;95820.72;8380833;28;20293;-68
2022/03/31 14:38:58;;;;;;;7.87;6.60;;;;;;;11.62;54.46;95823.81;8383326;28;20228;-69
2022/03/31 14:43:01;;;;;;;9.73;7.40;;;;;;;11.45;54.37;95814.84;8367019;28;20240;-67
2022/03/31 14:47:05;;;;;;;7.60;6.77;;;;;;;11.44;55.09;95814.94;8347527;28;20232;-67
2022/03/31 14:51:09;;;;;;;7.60;6.90;;;;;;;11.39;55.32;95815.34;8347604;28;20232;-67
2022/03/31 14:55:12;;;;;;;9.90;7.60;;;;;;;11.32;55.47;95812.41;8366624;28;20231;-66
2022/03/31 14:59:19;;;;;;;8.80;7.00;;;;;;;11.25;55.07;95815.63;8379971;28;20235;-66
2022/03/31 15:03:21;;;;;;;9.20;7.80;;;;;;;11.40;55.47;95798.81;8380096;28;20243;-66
2022/03/31 15:07:28;;;;;;;9.23;7.70;;;;;;;11.37;55.50;95806.88;8380019;28;20481;-65
2022/03/31 15:15:51;;;;;;;9.27;6.37;;;;;;;11.59;54.94;95807.69;8387659;28;20231;-68
2022/03/31 15:19:57;;;;;;;8.33;6.50;;;;;;;11.44;55.05;95802.00;8383879;28;20234;-66
2022/03/31 15:24:01;;;;;;;7.73;6.47;;;;;;;11.51;54.52;95801.34;8386570;28;20238;-69
2022/03/31 15:28:05;;;;;;;7.67;6.73;;;;;;;11.63;54.29;95799.53;8386300;28;20290;-69
2022/03/31 15:32:08;;;;;;;7.00;6.30;;;;;;;11.53;54.90;95801.25;8386242;28;20554;-68
2022/03/31 15:36:13;;;;;;;7.70;6.67;;;;;;;11.60;55.02;95791.19;8385625;28;20227;-69
2022/03/31 15:40:17;;;;;;;9.00;7.17;;;;;;;11.68;54.28;95792.19;8386011;28;20421;-69
2022/03/31 15:44:21;;;;;;;7.80;6.90;;;;;;;11.63;54.43;95799.53;8385960;28;20242;-70
2022/03/31 15:48:25;;;;;;;8.23;6.30;;;;;;;11.67;54.57;95789.72;8385874;28;20231;-69
2022/03/31 15:52:28;;;;;;;9.50;7.23;;;;;;;11.66;54.26;95786.31;8385610;28;20236;-69
2022/03/31 15:56:32;;;;;;;8.30;7.50;;;;;;;11.86;54.15;95786.41;8385525;28;20232;-69
2022/03/31 16:00:35;;;;;;;7.83;6.87;;;;;;;11.65;54.02;95786.44;8385464;28;20223;-68
2022/03/31 16:04:38;;;;;;;8.80;7.23;;;;;;;11.44;53.97;95789.88;8385436;28;20231;-69
2022/03/31 16:08:41;;;;;;;7.70;6.90;;;;;;;11.74;53.90;95790.84;8385295;28;20239;-70
2022/03/31 16:12:46;;;;;;;7.70;6.93;;;;;;;11.75;53.96;95789.91;8385770;28;20231;-66
2022/03/31 16:16:49;;;;;;;9.37;7.50;;;;;;;11.56;54.51;95793.22;8385080;28;20234;-66
2022/03/31 16:20:52;;;;;;;7.87;6.60;;;;;;;11.55;54.72;95794.16;8384456;28;20226;-66
2022/03/31 16:24:55;;;;;;;7.40;6.10;;;;;;;11.64;54.33;95793.41;8413561;28;20234;-67
2022/03/31 16:29:00;;;;;;;7.10;6.40;;;;;;;11.45;54.55;95801.06;8385492;28;20237;-66
2022/03/31 16:33:03;;;;;;;6.77;6.00;;;;;;;11.52;53.89;95800.44;8384414;28;20231;-65
2022/03/31 16:37:06;;;;;;;8.13;6.80;;;;;;;11.25;54.18;95800.94;8383863;28;20242;-65
2022/03/31 16:41:09;;;;;;;8.60;6.90;;;;;;;11.34;54.56;95805.34;8383777;28;20438;-65
2022/03/31 16:45:13;;;;;;;7.90;6.50;;;;;;;11.20;54.61;95813.44;8383563;28;20234;-66
2022/03/31 16:49:18;;;;;;;7.30;6.60;;;;;;;11.09;54.24;95810.88;8383779;28;20239;-66
2022/03/31 16:53:21;;;;;;;8.37;6.90;;;;;;;11.10;54.33;95809.91;8383650;28;20261;-65
2022/03/31 16:57:24;;;;;;;7.47;6.70;;;;;;;11.06;54.18;95817.13;8383548;28;20239;-65
2022/03/31 17:01:29;;;;;;;8.67;7.07;;;;;;;10.83;54.57;95812.97;8383344;28;20231;-65
2022/03/31 17:05:32;;;;;;;8.63;7.73;;;;;;;11.00;54.60;95817.59;8383030;28;20300;-67
2022/03/31 17:09:35;;;;;;;7.17;6.47;;;;;;;11.08;54.64;95817.84;8383259;28;20235;-65
2022/03/31 17:13:40;;;;;;;7.50;6.80;;;;;;;11.18;54.72;95817.09;8383165;28;20233;-65
2022/03/31 17:17:45;;;;;;;9.07;7.30;;;;;;;11.15;55.14;95818.16;8383090;28;20235;-66
2022/03/31 17:21:48;;;;;;;8.73;6.90;;;;;;;10.99;55.37;95815.97;8382987;28;20236;-66
2022/03/31 17:25:52;;;;;;;8.27;7.40;;;;;;;10.93;55.59;95819.06;8385453;28;20223;-66
2022/03/31 17:29:55;;;;;;;8.77;7.97;;;;;;;11.19;54.16;95814.34;8381121;28;20421;-65
2022/03/31 17:33:59;;;;;;;10.00;9.00;;;;;;;10.94;55.11;95813.75;8381435;28;20223;-65
2022/03/31 17:38:02;;;;;;;9.73;8.73;;;;;;;11.00;54.64;95806.44;8381777;28;20239;-65
2022/03/31 17:42:06;;;;;;;10.23;9.20;;;;;;;11.06;54.56;95814.53;8381782;28;20227;-65
2022/03/31 17:46:09;;;;;;;12.60;10.87;;;;;;;10.83;55.10;95821.53;8381128;28;20227;-66
2022/03/31 17:50:14;;;;;;;10.20;9.17;;;;;;;10.72;55.50;95819.81;8382042;28;20246;-65
2022/03/31 17:54:17;;;;;;;12.90;10.50;;;;;;;10.63;55.69;95820.53;8381515;28;20231;-65
2022/03/31 17:58:19;;;;;;;11.40;8.30;;;;;;;10.62;55.15;95821.47;8381458;28;20247;-66
2022/03/31 18:02:25;;;;;;;9.13;8.23;;;;;;;10.71;55.05;95823.34;8381634;28;20242;-65
2022/03/31 18:06:30;;;;;;;252.23;224.40;;;;;;;10.80;54.85;95823.56;8381600;28;20238;-64
2022/03/31 18:10:33;;;;;;;11.13;9.90;;;;;;;10.60;55.45;95831.13;8381083;28;20231;-64
2022/03/31 18:14:37;;;;;;;10.13;8.20;;;;;;;10.84;55.34;95822.38;8380987;28;20231;-66
2022/03/31 18:18:41;;;;;;;29.90;26.90;;;;;;;10.68;55.33;95830.53;8380700;28;20239;-65
2022/03/31 18:22:47;;;;;;;16.30;14.60;;;;;;;10.81;55.35;95838.16;8380296;28;20408;-66
2022/03/31 18:26:51;;;;;;;10.20;8.43;;;;;;;10.93;55.02;95847.56;8380011;28;20250;-67
2022/03/31 18:35:17;;;;;;;10.73;9.67;;;;;;;12.07;51.98;95846.91;8380097;28;20247;-68
2022/03/31 18:39:21;;;;;;;8.47;7.33;;;;;;;11.55;53.41;95853.78;8380528;28;20245;-68
2022/03/31 18:43:25;;;;;;;13.50;11.20;;;;;;;11.15;54.36;95849.22;8380253;28;20239;-67
2022/03/31 18:47:28;;;;;;;13.57;11.20;;;;;;;11.20;54.06;95851.47;8379394;28;20231;-67
2022/03/31 18:51:31;;;;;;;10.33;8.30;;;;;;;11.08;53.61;95861.03;8378411;28;20231;-67
2022/03/31 18:55:37;;;;;;;11.43;9.87;;;;;;;11.02;54.02;95859.75;8382746;28;20230;-70
2022/03/31 18:59:44;;;;;;;9.37;8.07;;;;;;;10.92;53.51;95864.84;8388177;28;20529;-69
2022/03/31 19:03:47;;;;;;;12.83;9.27;;;;;;;10.72;53.53;95874.19;8394959;28;20286;-67
2022/03/31 19:07:51;;;;;;;10.17;8.70;;;;;;;10.28;54.64;95872.41;8394533;28;20230;-70
2022/03/31 19:11:55;;;;;;;9.20;8.17;;;;;;;10.33;54.35;95872.91;8395227;28;20413;-68
2022/03/31 19:15:59;;;;;;;9.60;8.13;;;;;;;10.32;55.00;95884.22;8395889;28;20223;-68
2022/03/31 19:20:03;;;;;;;8.80;7.90;;;;;;;10.61;54.33;95894.09;8388808;28;20250;-69
2022/03/31 19:24:08;;;;;;;7.30;6.40;;;;;;;10.64;54.16;95891.25;8393626;28;20223;-70
2022/03/31 19:28:14;;;;;;;9.30;7.40;;;;;;;10.29;55.01;95892.97;8395462;28;20242;-69
2022/03/31 19:32:18;;;;;;;8.03;6.97;;;;;;;10.50;54.66;95884.56;8394011;28;20290;-70
2022/03/31 19:36:24;;;;;;;8.17;6.90;;;;;;;10.57;54.72;95888.31;8396243;28;20223;-70
2022/03/31 19:40:27;;;;;;;7.30;6.60;;;;;;;10.31;55.11;95893.72;8386738;28;20243;-70
2022/03/31 19:44:35;;;;;;;7.00;6.30;;;;;;;10.54;54.11;95901.50;8392578;28;20529;-70
2022/03/31 19:48:38;;;;;;;7.80;6.90;;;;;;;10.59;53.86;95906.31;8385808;28;20250;-70